Time;durP1;ratioP1;P1;durP2;ratioP2;P2;SDS_P1;SDS_P2;PMS_P1;PMS_P2;Temp;Humidity;BMP_temperature;BMP_pressure;BME280_temperature;BME280_humidity;BME280_pressure;Samples;Min_cycle;Max_cycle;Signal;HPM_P1;HPM_P2
2022/10/03 00:01:32;;;;;;;12.55;8.27;;;12.00;99.90;;;14.89;65.67;98406.88;5024511;28;20370;-52
2022/10/03 00:04:12;;;;;;;15.48;9.10;;;12.00;99.90;;;14.99;65.39;98400.50;5032467;28;20068;-51
2022/10/03 00:07:21;;;;;;;16.25;10.68;;;12.00;99.90;;;15.01;65.49;98419.94;5024047;28;20335;-47
2022/10/03 00:10:10;;;;;;;14.07;9.10;;;12.10;99.90;;;14.94;65.66;98427.81;5023962;28;20058;-47
2022/10/03 00:12:58;;;;;;;11.30;8.40;;;12.00;99.90;;;14.84;65.87;98432.53;5025068;28;20060;-50
2022/10/03 00:15:58;;;;;;;11.60;8.52;;;12.00;99.90;;;14.85;66.08;98435.03;5024069;28;20044;-49
2022/10/03 00:19:02;;;;;;;16.85;9.35;;;12.00;99.90;;;14.87;65.98;98429.50;5022748;28;20056;-51
2022/10/03 00:21:56;;;;;;;14.70;9.13;;;12.00;99.90;;;14.97;65.87;98438.22;5023049;28;20053;-51
2022/10/03 00:24:57;;;;;;;11.25;8.68;;;12.00;99.90;;;14.84;66.15;98438.72;5020171;28;20061;-48
2022/10/03 00:27:54;;;;;;;13.15;10.02;;;12.00;99.90;;;14.92;66.02;98433.34;5024080;28;20058;-51
2022/10/03 00:30:23;;;;;;;12.85;9.68;;;12.00;99.90;;;14.93;65.90;98436.88;5022662;28;20050;-48
2022/10/03 00:33:02;;;;;;;14.38;9.70;;;12.00;99.90;;;15.06;65.77;98437.19;5023917;28;20053;-52
2022/10/03 00:36:33;;;;;;;13.82;9.32;;;12.10;99.90;;;15.16;65.46;98453.94;5024267;28;20378;-50
2022/10/03 00:39:43;;;;;;;13.07;8.57;;;12.10;99.90;;;15.04;65.56;98459.81;5040807;28;20050;-52
2022/10/03 00:42:35;;;;;;;11.45;8.30;;;12.10;99.90;;;14.79;66.17;98467.03;5022662;28;20054;-49
2022/10/03 00:45:38;;;;;;;12.10;8.73;;;12.00;99.90;;;14.75;66.18;98461.16;5024044;28;20060;-50
2022/10/03 00:48:13;;;;;;;14.95;9.77;;;11.90;99.90;;;14.95;65.87;98457.16;5023297;28;20056;-49
2022/10/03 00:51:07;;;;;;;14.38;8.57;;;12.00;99.90;;;15.12;65.64;98454.44;5023405;28;20049;-52
2022/10/03 00:54:14;;;;;;;16.25;9.15;;;12.10;99.90;;;15.19;65.29;98457.28;5023448;28;20041;-50
2022/10/03 00:57:15;;;;;;;13.25;8.82;;;12.20;99.90;;;15.19;64.94;98460.78;5023043;28;20046;-50
2022/10/03 00:59:42;;;;;;;12.18;8.70;;;12.20;99.90;;;15.16;65.22;98461.97;5022520;28;20041;-51
2022/10/03 01:02:38;;;;;;;15.20;10.32;;;12.10;99.90;;;15.19;65.02;98465.31;5023708;28;20057;-52
2022/10/03 01:05:12;;;;;;;11.32;8.13;;;12.20;99.90;;;15.24;64.86;98460.28;5023367;28;20046;-49
2022/10/03 01:08:36;;;;;;;15.70;9.00;;;12.10;99.90;;;15.22;65.08;98449.72;5022723;28;20045;-51
2022/10/03 01:11:41;;;;;;;15.05;9.35;;;12.20;99.90;;;15.26;64.71;98452.91;5023275;28;20046;-53
2022/10/03 01:14:32;;;;;;;13.60;8.77;;;12.10;99.90;;;15.20;65.10;98458.94;5022908;28;20049;-52
2022/10/03 01:17:27;;;;;;;17.70;9.52;;;12.20;99.90;;;15.27;64.71;98458.09;5021934;28;20054;-51
2022/10/03 01:20:14;;;;;;;14.88;8.38;;;12.20;99.90;;;15.29;64.78;98466.78;5023291;28;20064;-52
2022/10/03 01:23:30;;;;;;;11.00;6.78;;;12.20;99.90;;;15.28;64.65;98464.31;5022169;28;20046;-49
2022/10/03 01:26:39;;;;;;;13.38;7.32;;;12.20;99.90;;;15.28;64.63;98467.00;5023103;28;20053;-53
2022/10/03 01:33:04;;;;;;;15.27;9.07;;;12.20;99.90;;;15.02;64.82;98476.06;5022052;28;20045;-52
2022/10/03 01:36:02;;;;;;;12.95;8.10;;;12.00;99.90;;;14.94;65.03;98476.91;5022538;28;20041;-49
2022/10/03 01:38:52;;;;;;;12.27;8.60;;;11.90;99.90;;;14.81;65.36;98473.91;5020874;28;20053;-52
2022/10/03 01:41:59;;;;;;;14.18;8.20;;;11.90;99.90;;;14.80;65.50;98472.22;5021613;28;20252;-49
2022/10/03 01:44:42;;;;;;;12.50;8.02;;;11.90;99.90;;;14.90;65.20;98469.38;5022749;28;20240;-52
2022/10/03 01:47:29;;;;;;;13.18;8.85;;;11.90;99.90;;;14.86;65.23;98479.59;5021168;28;20076;-49
2022/10/03 01:50:11;;;;;;;16.25;9.13;;;11.90;99.90;;;14.91;65.08;98492.50;5023075;28;20053;-51
2022/10/03 01:53:03;;;;;;;14.82;8.35;;;11.90;99.90;;;15.02;65.03;98494.00;5021932;28;20037;-53
2022/10/03 01:55:40;;;;;;;13.38;9.88;;;12.00;99.90;;;15.01;64.85;98498.53;5022696;28;20052;-51
2022/10/03 01:58:22;;;;;;;15.05;9.75;;;12.00;99.90;;;15.05;64.97;98496.34;5022076;28;20243;-50
2022/10/03 02:01:08;;;;;;;18.58;9.15;;;12.00;99.90;;;15.12;64.61;98502.69;5022525;28;20049;-52
2022/10/03 02:03:53;;;;;;;15.15;9.38;;;12.00;99.90;;;15.13;64.55;98499.03;5021517;28;20054;-51
2022/10/03 02:07:10;;;;;;;15.82;8.30;;;12.00;99.90;;;15.13;64.54;98502.53;5022402;28;20059;-49
2022/10/03 02:09:44;;;;;;;16.50;8.50;;;12.10;99.90;;;15.19;64.39;98506.38;5022422;28;20050;-50
2022/10/03 02:12:44;;;;;;;11.85;7.63;;;12.00;99.90;;;15.13;64.57;98496.34;5021707;28;20233;-50
2022/10/03 02:15:27;;;;;;;14.63;9.30;;;12.00;99.90;;;15.14;64.41;98500.69;5022626;28;20056;-48
2022/10/03 02:18:23;;;;;;;16.10;9.25;;;12.00;99.90;;;15.20;64.38;98500.03;5020866;28;20053;-52
2022/10/03 02:21:17;;;;;;;14.07;8.77;;;12.10;99.90;;;15.26;64.36;98503.88;5021339;28;20046;-52
2022/10/03 02:23:48;;;;;;;14.95;9.00;;;12.10;99.90;;;15.26;64.22;98501.19;5022170;28;20045;-50
2022/10/03 02:26:47;;;;;;;12.63;9.82;;;12.10;99.90;;;15.19;64.13;98497.50;5020767;28;20053;-49
2022/10/03 02:29:53;;;;;;;14.60;8.80;;;12.10;99.90;;;15.13;64.01;98501.69;5021711;28;20060;-53
2022/10/03 02:33:01;;;;;;;13.52;8.50;;;12.00;99.90;;;15.09;64.03;98505.72;5021969;28;20050;-50
2022/10/03 02:36:00;;;;;;;14.00;8.68;;;11.90;99.90;;;15.07;64.04;98497.84;5022742;28;20080;-51
2022/10/03 02:38:40;;;;;;;15.15;9.05;;;11.90;99.90;;;15.03;64.02;98498.38;5021228;28;20052;-51
2022/10/03 02:41:41;;;;;;;14.50;9.25;;;11.90;99.90;;;14.90;64.03;98504.22;5022276;28;20049;-51
2022/10/03 02:44:50;;;;;;;16.65;9.68;;;11.80;99.90;;;14.72;64.14;98502.56;5022216;28;20071;-51
2022/10/03 02:47:43;;;;;;;16.60;11.27;;;11.70;99.90;;;14.69;64.17;98489.47;5030629;28;20080;-52
2022/10/03 02:50:51;;;;;;;18.58;10.75;;;11.60;99.90;;;14.51;64.70;98489.59;5025949;28;20247;-51
2022/10/03 02:53:47;;;;;;;17.45;10.23;;;11.60;99.90;;;14.63;64.29;98492.81;5025773;28;20056;-50
2022/10/03 02:56:57;;;;;;;15.50;9.52;;;11.60;99.90;;;14.65;64.08;98489.97;5024900;28;20046;-52
2022/10/03 03:00:04;;;;;;;14.77;9.57;;;11.60;99.90;;;14.59;63.99;98488.81;5025707;28;20041;-50
2022/10/03 03:03:04;;;;;;;15.88;10.10;;;11.50;99.90;;;14.51;64.20;98489.59;5025545;28;20352;-51
2022/10/03 03:05:57;;;;;;;12.52;8.98;;;11.50;99.90;;;14.48;64.32;98489.09;5025650;28;20046;-54
2022/10/03 03:09:16;;;;;;;17.50;10.57;;;11.40;99.90;;;14.44;64.33;98485.06;5025551;28;20053;-50
2022/10/03 03:12:22;;;;;;;14.93;10.27;;;11.40;99.90;;;14.41;64.36;98488.09;5024872;28;20061;-48
2022/10/03 03:15:10;;;;;;;15.88;8.98;;;11.40;99.90;;;14.40;64.43;98489.91;5025459;28;20046;-52
2022/10/03 03:18:03;;;;;;;14.40;10.43;;;11.30;99.90;;;14.31;64.48;98477.53;5024717;28;20341;-49
2022/10/03 03:20:53;;;;;;;14.25;9.43;;;11.30;99.90;;;14.16;65.15;98480.84;5025248;28;20045;-47
2022/10/03 03:23:41;;;;;;;11.63;8.60;;;11.20;99.90;;;14.24;64.51;98489.91;5025279;28;20240;-49
2022/10/03 03:26:41;;;;;;;14.00;10.27;;;11.20;99.90;;;14.26;64.39;98479.84;5023837;28;20038;-50
2022/10/03 03:29:54;;;;;;;17.17;12.13;;;11.20;99.90;;;14.31;64.50;98488.25;5025063;28;20456;-54
2022/10/03 03:32:56;;;;;;;15.10;10.43;;;11.20;99.90;;;14.33;64.16;98487.06;5025022;28;20341;-53
2022/10/03 03:36:06;;;;;;;14.97;8.97;;;11.30;99.90;;;14.29;64.20;98490.25;5025223;28;20056;-54
2022/10/03 03:39:05;;;;;;;13.73;8.83;;;11.20;99.90;;;14.29;64.09;98488.41;5023940;28;20053;-52
2022/10/03 03:42:02;;;;;;;16.33;8.10;;;11.20;99.90;;;14.31;63.98;98489.06;5024037;28;20052;-51
2022/10/03 03:45:06;;;;;;;14.97;9.30;;;11.20;99.90;;;14.30;63.88;98483.88;5033672;28;20225;-52
2022/10/03 03:48:04;;;;;;;14.05;8.38;;;11.20;99.90;;;14.31;63.87;98488.25;5024744;28;20037;-50
2022/10/03 03:51:28;;;;;;;13.05;7.32;;;11.20;99.90;;;14.30;63.95;98500.78;5025380;28;20049;-51
2022/10/03 03:54:40;;;;;;;12.25;8.15;;;11.20;99.90;;;14.34;63.62;98502.13;5036866;28;20248;-50
2022/10/03 03:57:23;;;;;;;11.77;8.65;;;11.30;99.90;;;14.34;63.52;98502.13;5023050;28;20057;-49
2022/10/03 04:00:00;;;;;;;11.77;7.78;;;11.20;99.90;;;14.31;63.23;98507.00;5024713;28;20052;-50
2022/10/03 04:02:42;;;;;;;11.57;7.47;;;11.20;99.90;;;14.26;63.17;98510.16;5026838;28;20045;-48
2022/10/03 04:05:40;;;;;;;13.93;8.93;;;11.10;99.90;;;14.21;63.57;98509.81;5024534;28;20052;-49
2022/10/03 04:08:37;;;;;;;12.23;8.30;;;11.10;99.90;;;14.17;63.39;98506.63;5023880;28;20250;-49
2022/10/03 04:11:22;;;;;;;14.67;9.43;;;11.00;99.90;;;14.13;63.32;98504.41;5024447;28;20056;-54
2022/10/03 04:14:19;;;;;;;13.93;8.27;;;10.90;99.90;;;14.14;63.46;98512.28;5024250;28;20052;-49
2022/10/03 04:20:30;;;;;;;13.40;9.17;;;11.00;99.90;;;14.20;63.65;98512.66;5024855;28;20340;-50
2022/10/03 04:23:44;;;;;;;13.07;8.82;;;11.00;99.90;;;14.25;63.41;98512.97;5023957;28;20046;-51
2022/10/03 04:26:40;;;;;;;14.40;9.43;;;11.10;99.90;;;14.29;63.69;98509.84;5022899;28;20050;-49
2022/10/03 04:29:11;;;;;;;13.00;9.60;;;11.20;99.90;;;14.26;63.64;98515.50;5023031;28;20054;-52
2022/10/03 04:32:19;;;;;;;14.27;9.03;;;11.10;99.90;;;14.26;63.77;98523.53;5024152;28;20052;-49
2022/10/03 04:35:25;;;;;;;14.73;9.40;;;11.10;99.90;;;14.30;63.81;98521.38;5028796;28;20062;-51
2022/10/03 04:38:04;;;;;;;20.05;9.48;;;11.20;99.90;;;14.35;63.91;98527.91;5023451;28;20360;-50
2022/10/03 04:41:07;;;;;;;22.70;10.55;;;11.20;99.90;;;14.27;64.02;98524.38;5023874;28;20049;-50
2022/10/03 04:44:15;;;;;;;18.58;10.13;;;11.20;99.90;;;14.22;64.38;98522.19;5023916;28;20041;-52
2022/10/03 04:46:55;;;;;;;31.33;12.23;;;11.20;99.90;;;14.28;64.23;98529.56;5023226;28;20056;-53
2022/10/03 04:49:48;;;;;;;23.60;11.63;;;11.20;99.90;;;14.27;64.45;98532.41;5022697;28;20236;-49
2022/10/03 04:52:43;;;;;;;20.98;12.10;;;11.20;99.90;;;14.13;64.85;98539.22;5022689;28;20052;-48
2022/10/03 04:55:37;;;;;;;23.58;10.20;;;11.20;99.90;;;14.15;64.87;98538.09;5023494;28;20045;-52
2022/10/03 04:58:19;;;;;;;21.70;11.50;;;11.20;99.90;;;14.22;64.69;98542.78;5023052;28;20048;-52
2022/10/03 05:01:16;;;;;;;20.23;11.87;;;11.10;99.90;;;14.21;64.84;98536.59;5022588;28;20240;-53
2022/10/03 05:04:17;;;;;;;20.97;11.37;;;11.10;99.90;;;14.26;64.69;98544.97;5023456;28;20045;-50
2022/10/03 05:07:09;;;;;;;18.60;11.60;;;11.10;99.90;;;14.14;64.94;98541.75;5021979;28;20053;-48
2022/10/03 05:10:02;;;;;;;19.10;11.17;;;11.10;99.90;;;14.18;64.74;98535.06;5022693;28;20045;-49
2022/10/03 05:12:55;;;;;;;20.23;10.80;;;11.10;99.90;;;14.25;64.70;98539.75;5023242;28;20056;-53
2022/10/03 05:15:32;;;;;;;19.50;10.77;;;11.10;99.90;;;14.16;64.98;98537.06;5023070;28;20091;-49
2022/10/03 05:18:13;;;;;;;24.27;12.18;;;11.10;99.90;;;14.12;65.11;98538.41;5021529;28;20042;-54
2022/10/03 05:20:52;;;;;;;18.57;10.70;;;11.10;99.90;;;14.10;65.07;98539.56;5023226;28;20243;-51
2022/10/03 05:23:28;;;;;;;24.20;11.57;;;11.10;99.90;;;14.02;65.14;98545.72;5023056;28;20049;-53
2022/10/03 05:26:22;;;;;;;21.83;10.32;;;11.00;99.90;;;14.09;65.02;98553.94;5022911;28;20234;-53
2022/10/03 05:29:34;;;;;;;18.83;11.00;;;11.00;99.90;;;14.08;64.95;98555.78;5022957;28;20248;-50
2022/10/03 05:32:24;;;;;;;22.00;12.00;;;11.10;99.90;;;14.18;64.81;98555.66;5023047;28;20046;-51
2022/10/03 05:35:28;;;;;;;18.20;10.83;;;11.10;99.90;;;14.22;64.91;98566.88;5021702;28;20068;-53
2022/10/03 05:38:14;;;;;;;24.15;12.50;;;11.20;99.90;;;14.30;64.75;98572.25;5021757;28;20053;-49
2022/10/03 05:41:24;;;;;;;17.10;10.38;;;11.30;99.90;;;14.36;64.75;98577.81;5022829;28;20053;-52
2022/10/03 05:44:42;;;;;;;18.03;11.13;;;11.30;99.90;;;14.43;64.60;98593.25;5021802;28;20045;-52
2022/10/03 05:50:43;;;;;;;20.27;12.43;;;11.40;99.90;;;14.52;64.09;98587.75;5022664;28;20247;-52
2022/10/03 05:53:42;;;;;;;20.00;10.90;;;11.40;99.90;;;14.51;64.23;98585.22;5022747;28;20049;-52
2022/10/03 05:56:56;;;;;;;17.73;10.87;;;11.40;99.90;;;14.52;64.07;98586.88;5022565;28;20060;-51
2022/10/03 05:59:42;;;;;;;20.05;13.77;;;11.40;99.90;;;14.61;63.68;98582.44;5022603;28;20045;-51
2022/10/03 06:02:43;;;;;;;23.30;14.70;;;11.40;99.90;;;14.63;63.77;98583.94;5005649;28;20062;-50
2022/10/03 06:05:26;;;;;;;23.08;13.88;;;11.50;99.90;;;14.66;63.72;98585.47;5022481;28;20050;-51
2022/10/03 06:08:40;;;;;;;25.75;12.88;;;11.50;99.90;;;14.68;63.93;98588.81;5022112;28;20042;-49
2022/10/03 06:11:46;;;;;;;16.55;10.60;;;11.50;99.90;;;14.61;63.73;98590.47;5021557;28;20042;-52
2022/10/03 06:14:23;;;;;;;19.27;10.98;;;11.50;99.90;;;14.59;63.63;98592.47;5022287;28;20052;-49
2022/10/03 06:17:11;;;;;;;20.03;12.07;;;11.40;99.90;;;14.51;64.02;98593.25;5021776;28;20052;-49
2022/10/03 06:19:39;;;;;;;23.75;11.80;;;11.30;99.90;;;14.47;64.00;98591.91;5022632;28;20048;-50
2022/10/03 06:22:32;;;;;;;22.52;11.32;;;11.30;99.90;;;14.50;64.11;98599.59;5025526;28;20046;-51
2022/10/03 06:25:24;;;;;;;19.15;12.02;;;11.40;99.90;;;14.50;63.83;98608.50;5022811;28;20237;-50
2022/10/03 06:28:17;;;;;;;18.60;10.63;;;11.40;99.90;;;14.48;64.14;98606.97;5025263;28;20048;-52
2022/10/03 06:31:18;;;;;;;20.58;13.18;;;11.40;99.90;;;14.45;64.11;98612.69;5026347;28;20394;-49
2022/10/03 06:34:23;;;;;;;22.30;11.73;;;11.40;99.90;;;14.56;64.05;98615.06;5026226;28;20053;-50
2022/10/03 06:37:22;;;;;;;;;;;11.50;99.90;;;14.67;63.70;98612.09;5026224;28;20239;-53
2022/10/03 06:40:18;;;;;;;18.38;10.77;;;11.50;99.90;;;14.69;63.50;98623.47;5025338;28;19943;-53
2022/10/03 06:43:12;;;;;;;20.13;11.95;;;11.50;99.90;;;14.68;64.06;98627.19;5026091;28;20046;-50
2022/10/03 06:46:24;;;;;;;23.27;11.35;;;11.60;99.90;;;14.68;63.57;98632.53;5024869;28;20050;-50
2022/10/03 06:49:26;;;;;;;20.10;13.17;;;11.50;99.90;;;14.72;63.46;98635.72;5024680;28;20050;-50
2022/10/03 06:52:35;;;;;;;18.40;12.02;;;11.50;99.90;;;14.76;63.65;98634.41;5025909;28;20348;-53
2022/10/03 06:55:21;;;;;;;23.35;13.85;;;11.60;99.90;;;14.86;63.59;98628.88;5024733;28;20344;-51
2022/10/03 06:59:04;;;;;;;21.98;12.15;;;11.70;99.90;;;14.79;63.39;98634.06;5024454;28;20143;-52
2022/10/03 07:01:58;;;;;;;19.15;11.30;;;11.70;99.90;;;14.84;63.03;98638.94;5023803;28;20064;-51
2022/10/03 07:05:18;;;;;;;23.77;12.68;;;11.60;99.90;;;14.83;63.35;98645.28;5024754;28;20236;-50
2022/10/03 07:08:35;;;;;;;20.83;10.82;;;11.60;99.90;;;14.77;63.33;98649.47;5023473;28;20053;-52
2022/10/03 07:11:45;;;;;;;23.50;12.90;;;11.60;99.90;;;14.88;63.49;98653.69;5025333;28;20381;-52
2022/10/03 07:14:41;;;;;;;20.55;11.13;;;11.70;99.90;;;14.96;62.98;98645.66;5025388;28;20048;-51
2022/10/03 07:18:05;;;;;;;18.48;11.23;;;11.80;99.90;;;14.90;62.81;98655.19;5025258;28;20046;-50
2022/10/03 07:20:57;;;;;;;18.00;11.57;;;11.80;99.90;;;14.97;62.86;98655.41;5026208;28;20049;-51
2022/10/03 07:23:34;;;;;;;20.95;11.63;;;11.80;99.90;;;15.00;62.81;98662.25;5025265;28;20055;-47
2022/10/03 07:26:26;;;;;;;17.77;12.52;;;11.90;99.90;;;15.04;62.76;98666.28;5025352;28;20269;-53
2022/10/03 07:29:16;;;;;;;18.85;11.57;;;11.90;99.90;;;15.02;62.52;98660.25;5024936;28;20054;-54
2022/10/03 07:31:48;;;;;;;16.63;10.52;;;11.80;99.90;;;15.03;62.70;98664.63;5024703;28;20056;-50
2022/10/03 07:35:09;;;;;;;20.00;11.75;;;11.90;99.90;;;15.04;62.91;98671.66;5023913;28;20323;-52
2022/10/03 07:41:15;;;;;;;16.75;10.00;;;11.90;99.90;;;15.20;62.44;98666.31;5025055;28;20052;-51
2022/10/03 07:44:08;;;;;;;21.98;10.65;;;12.00;99.90;;;15.21;62.08;98651.06;5024978;28;20048;-52
2022/10/03 07:46:40;;;;;;;15.68;9.70;;;12.00;99.90;;;15.13;61.38;98657.25;5024479;28;20255;-53
2022/10/03 07:49:46;;;;;;;16.80;9.23;;;11.90;99.90;;;15.17;61.72;98663.97;5025042;28;20056;-50
2022/10/03 07:52:38;;;;;;;18.73;10.23;;;11.90;99.90;;;15.18;61.67;98672.84;5024721;28;20046;-52
2022/10/03 07:55:38;;;;;;;13.57;9.57;;;12.00;99.90;;;15.23;62.03;98671.34;5024568;28;20225;-51
2022/10/03 07:58:25;;;;;;;16.33;9.65;;;12.10;99.90;;;15.23;61.31;98676.72;5024160;28;20244;-52
2022/10/03 08:01:30;;;;;;;13.77;8.73;;;12.00;99.90;;;15.18;60.75;98676.38;5024638;28;20348;-52
2022/10/03 08:04:35;;;;;;;15.18;9.05;;;12.00;99.90;;;15.26;60.85;98670.19;5024726;28;20046;-48
2022/10/03 08:07:44;;;;;;;17.75;8.80;;;12.00;99.90;;;15.29;61.12;98670.66;5024332;28;20065;-54
2022/10/03 08:10:46;;;;;;;16.88;10.65;;;12.00;99.90;;;15.25;60.93;98680.06;5030360;28;20058;-48
2022/10/03 08:13:51;;;;;;;15.35;10.60;;;12.00;99.90;;;15.26;61.05;98686.28;5024109;28;20046;-50
2022/10/03 08:16:50;;;;;;;16.35;9.20;;;12.10;99.90;;;15.33;61.16;98685.47;5024060;28;20050;-52
2022/10/03 08:20:00;;;;;;;14.60;9.35;;;12.20;99.90;;;15.38;60.88;98686.81;5024211;28;20050;-49
2022/10/03 08:22:59;;;;;;;13.75;9.65;;;12.20;99.90;;;15.45;60.85;98685.09;5032272;28;20088;-49
2022/10/03 08:26:16;;;;;;;13.48;8.82;;;12.20;99.90;;;15.56;60.79;98687.47;5023864;28;20348;-52
2022/10/03 08:29:05;;;;;;;16.40;9.23;;;12.40;99.90;;;15.64;60.73;98684.78;5023817;28;20049;-52
2022/10/03 08:32:03;;;;;;;15.50;9.23;;;12.40;99.90;;;15.69;60.50;98678.91;5024491;28;20060;-52
2022/10/03 08:35:23;;;;;;;15.05;9.60;;;12.50;99.90;;;15.24;59.79;98686.44;5024341;28;20050;-49
2022/10/03 08:38:32;;;;;;;16.35;9.82;;;12.10;99.90;;;15.11;60.43;98686.09;5023811;28;20049;-54
2022/10/03 08:41:28;;;;;;;22.90;10.95;;;11.90;99.90;;;14.97;61.09;98687.56;5023562;28;20056;-53
2022/10/03 08:44:30;;;;;;;22.75;10.15;;;11.90;99.90;;;14.92;61.00;98692.56;5022959;28;20049;-50
2022/10/03 08:47:44;;;;;;;12.98;8.55;;;11.90;99.90;;;15.10;61.15;98690.63;5022254;28;20058;-51
2022/10/03 08:50:48;;;;;;;16.33;8.98;;;11.90;99.90;;;15.30;61.34;98688.47;5025264;28;20057;-49
2022/10/03 08:53:49;;;;;;;20.85;10.63;;;12.20;99.90;;;15.36;60.64;98690.47;5022281;28;20057;-51
2022/10/03 08:56:52;;;;;;;13.52;9.10;;;12.20;99.90;;;15.36;60.20;98692.31;5023616;28;20048;-51
2022/10/03 08:59:44;;;;;;;12.18;8.52;;;12.20;99.90;;;15.39;60.20;98696.50;5018264;28;20064;-51
2022/10/03 09:02:55;;;;;;;13.93;8.60;;;12.20;99.90;;;15.47;59.96;98694.69;5023411;28;20045;-53
2022/10/03 09:06:23;;;;;;;15.20;7.57;;;12.30;99.90;;;15.51;59.57;98692.50;5023318;28;20240;-54
2022/10/03 09:09:49;;;;;;;18.55;9.18;;;12.30;99.90;;;15.60;59.05;98690.66;5023296;28;20253;-52
2022/10/03 09:12:56;;;;;;;12.80;6.15;;;12.40;99.90;;;15.51;57.23;98698.72;5035453;28;20056;-52
2022/10/03 09:15:52;;;;;;;21.27;11.85;;;12.40;99.90;;;15.67;57.88;98691.66;5023559;28;20052;-50
2022/10/03 09:18:40;;;;;;;13.88;6.53;;;12.50;99.90;;;15.79;57.18;98690.34;5023336;28;20065;-51
2022/10/03 09:21:30;;;;;;;12.57;5.55;;;12.50;99.90;;;15.86;57.07;98695.91;5023175;28;20276;-51
2022/10/03 09:24:56;;;;;;;10.00;4.72;;;12.60;99.90;;;15.89;56.69;98687.47;5022588;28;20056;-52
2022/10/03 09:28:24;;;;;;;9.85;6.00;;;12.70;99.90;;;15.96;57.45;98680.44;5018948;28;20045;-51
2022/10/03 09:32:08;;;;;;;8.52;5.15;;;12.80;99.90;;;15.91;56.27;98680.09;5023008;28;20056;-54
2022/10/03 09:35:19;;;;;;;8.85;5.10;;;12.80;99.90;;;16.06;56.49;98680.25;5040274;28;20056;-51
2022/10/03 09:38:43;;;;;;;10.73;4.97;;;12.80;99.90;;;16.14;56.98;98680.22;5039812;28;20079;-51
2022/10/03 09:41:37;;;;;;;6.53;4.63;;;13.00;99.90;;;16.23;56.04;98679.19;5021827;28;20049;-48
2022/10/03 09:44:41;;;;;;;8.32;4.15;;;13.10;99.90;;;16.28;55.09;98670.59;5021842;28;20060;-49
2022/10/03 09:48:00;;;;;;;7.70;4.10;;;13.00;99.90;;;16.25;54.88;98663.75;5021591;28;20221;-52
2022/10/03 09:50:45;;;;;;;11.95;4.57;;;13.10;99.90;;;16.36;54.95;98673.25;5022753;28;20052;-53
2022/10/03 09:53:36;;;;;;;12.90;4.68;;;13.10;99.90;;;16.41;55.10;98673.59;5021676;28;20267;-48
2022/10/03 09:56:43;;;;;;;11.75;4.90;;;13.30;99.90;;;16.44;55.50;98673.25;5022332;28;20048;-50
2022/10/03 09:59:33;;;;;;;11.93;4.93;;;13.40;99.90;;;16.43;54.94;98670.75;5022662;28;20060;-50
2022/10/03 10:02:49;;;;;;;8.48;4.68;;;13.40;99.90;;;16.42;55.87;98669.91;5022541;28;20056;-53
2022/10/03 10:05:26;;;;;;;10.25;5.03;;;13.50;99.90;;;16.51;55.31;98666.16;5025972;28;20054;-50
2022/10/03 10:08:47;;;;;;;9.40;4.50;;;13.50;99.90;;;16.39;55.48;98672.09;5022430;28;20056;-53
2022/10/03 10:11:43;;;;;;;7.47;4.78;;;13.50;99.90;;;16.33;55.04;98674.44;5040112;28;20080;-52
2022/10/03 10:14:35;;;;;;;7.93;4.55;;;13.40;99.90;;;16.36;55.23;98681.31;5021567;28;20042;-49
2022/10/03 10:17:48;;;;;;;7.78;4.55;;;13.40;99.90;;;16.49;55.55;98684.31;5022268;28;20064;-53
2022/10/03 10:20:42;;;;;;;9.13;5.82;;;13.50;99.90;;;16.67;55.64;98683.22;5022411;28;20046;-49
2022/10/03 10:23:41;;;;;;;8.77;4.25;;;13.80;99.90;;;16.64;53.54;98680.91;5022245;28;20044;-53
2022/10/03 10:27:02;;;;;;;9.20;4.75;;;13.80;98.70;;;16.57;54.56;98683.44;5021489;28;20053;-54
2022/10/03 10:29:59;;;;;;;9.13;4.32;;;13.60;99.90;;;16.52;53.84;98683.97;5040104;28;20059;-50
2022/10/03 10:32:54;;;;;;;11.55;4.40;;;13.40;99.10;;;16.41;53.72;98680.81;5040060;28;20060;-51
2022/10/03 10:35:53;;;;;;;8.23;4.60;;;13.50;99.90;;;16.54;54.33;98686.50;5022530;28;20045;-54
2022/10/03 10:38:28;;;;;;;9.15;4.32;;;13.50;99.90;;;16.67;54.12;98686.78;5021559;28;20057;-49
2022/10/03 10:41:20;;;;;;;8.90;4.50;;;13.60;99.90;;;16.80;54.44;98690.75;5021183;28;20060;-49
2022/10/03 10:44:15;;;;;;;8.00;4.65;;;13.90;99.90;;;16.81;52.92;98685.19;5021268;28;20054;-48
2022/10/03 10:47:13;;;;;;;7.47;4.88;;;13.90;97.20;;;16.95;53.31;98685.50;5021611;28;20050;-52
2022/10/03 10:50:32;;;;;;;11.32;4.70;;;13.90;99.70;;;17.00;52.84;98677.72;5022203;28;20236;-51
2022/10/03 10:53:56;;;;;;;7.82;4.78;;;14.10;96.80;;;17.02;53.39;98675.69;5022009;28;20041;-50
2022/10/03 10:57:04;;;;;;;9.55;4.25;;;14.00;99.90;;;17.13;53.21;98672.59;5021776;28;20033;-50
2022/10/03 11:00:17;;;;;;;9.18;5.18;;;14.10;99.60;;;17.19;53.42;98663.78;5021913;28;20054;-51
2022/10/03 11:03:00;;;;;;;10.93;5.03;;;14.30;99.90;;;17.22;52.87;98663.47;5022024;28;20060;-48
2022/10/03 11:05:55;;;;;;;7.53;4.75;;;14.30;99.90;;;17.23;52.80;98661.59;5021978;28;20053;-47
2022/10/03 11:08:38;;;;;;;8.80;4.53;;;14.30;99.90;;;17.21;52.56;98664.47;5024791;28;20046;-49
2022/10/03 11:11:51;;;;;;;8.10;5.43;;;14.20;99.20;;;17.22;53.09;98658.06;5025494;28;20049;-51
2022/10/03 11:14:56;;;;;;;11.25;6.13;;;14.20;99.90;;;17.24;53.44;98660.59;5024660;28;20287;-47
2022/10/03 11:18:11;;;;;;;11.60;5.53;;;14.30;99.90;;;17.23;53.11;98665.13;5025568;28;20056;-49
2022/10/03 11:20:59;;;;;;;9.10;4.40;;;14.30;99.30;;;17.34;53.17;98657.66;5025720;28;20244;-49
2022/10/03 11:24:22;;;;;;;8.73;4.72;;;14.40;99.90;;;17.48;53.35;98665.75;5023954;28;20137;-48
2022/10/03 11:27:14;;;;;;;6.97;4.63;;;14.70;96.70;;;17.60;51.99;98658.13;5031575;28;20060;-49
2022/10/03 11:30:11;;;;;;;9.68;4.07;;;14.70;95.60;;;17.70;52.42;98656.00;5025233;28;20340;-50
2022/10/03 11:32:54;;;;;;;8.85;4.43;;;14.90;95.20;;;17.84;52.05;98658.94;5025071;28;20050;-48
2022/10/03 11:36:13;;;;;;;8.75;3.97;;;15.00;97.00;;;17.84;52.04;98665.16;5025142;28;20056;-48
2022/10/03 11:39:04;;;;;;;9.05;4.70;;;15.10;91.90;;;17.60;51.26;98662.66;5024362;28;20053;-50
2022/10/03 11:42:01;;;;;;;6.60;4.10;;;14.80;94.40;;;17.57;51.26;98668.41;5026555;28;20062;-50
2022/10/03 11:44:31;;;;;;;7.75;4.75;;;14.60;92.80;;;17.42;51.08;98654.91;5025177;28;20052;-52
2022/10/03 11:48:11;;;;;;;8.85;4.93;;;14.40;96.90;;;17.38;51.21;98657.09;5022947;28;20058;-49
2022/10/03 11:51:02;;;;;;;33.35;18.15;;;14.30;91.70;;;17.39;51.50;98658.81;5042542;28;20049;-50
2022/10/03 11:53:52;;;;;;;16.20;5.78;;;14.30;95.30;;;17.29;51.22;98650.09;5026755;28;20049;-50
2022/10/03 11:56:48;;;;;;;23.25;13.13;;;14.30;95.00;;;17.37;51.79;98655.44;5023340;28;20061;-49
2022/10/03 11:59:33;;;;;;;8.55;5.03;;;14.30;97.60;;;17.49;51.80;98653.16;5023292;28;20364;-47
2022/10/03 12:02:50;;;;;;;17.73;10.00;;;14.50;97.90;;;17.61;51.62;98659.78;5024686;28;20048;-50
2022/10/03 12:09:45;;;;;;;9.75;4.75;;;14.90;91.90;;;17.96;51.58;98651.25;5040800;28;20045;-50
2022/10/03 12:12:36;;;;;;;9.30;5.05;;;15.10;93.20;;;17.93;50.31;98644.34;5024331;28;20046;-50
2022/10/03 12:15:41;;;;;;;9.50;5.43;;;15.10;89.60;;;18.02;50.90;98645.13;5024341;28;20429;-50
2022/10/03 12:18:51;;;;;;;7.05;4.30;;;15.10;90.70;;;18.25;51.10;98642.34;5023732;28;20050;-49
2022/10/03 12:21:52;;;;;;;10.23;5.40;;;15.50;92.10;;;18.37;51.07;98637.31;5022941;28;20072;-48
2022/10/03 12:24:40;;;;;;;7.03;4.47;;;15.70;91.80;;;18.48;51.17;98634.97;5008592;28;20058;-52
2022/10/03 12:27:39;;;;;;;6.82;4.45;;;15.80;92.00;;;18.58;51.20;98632.00;5020210;28;20048;-52
2022/10/03 12:30:20;;;;;;;13.75;8.35;;;16.00;92.00;;;18.59;50.43;98630.97;5023355;28;20060;-52
2022/10/03 12:33:38;;;;;;;5.95;3.70;;;16.00;89.60;;;18.53;50.09;98623.63;5024089;28;20336;-49
2022/10/03 12:36:15;;;;;;;8.43;4.00;;;15.80;88.20;;;18.53;50.40;98622.78;5023868;28;20236;-50
2022/10/03 12:39:06;;;;;;;8.95;4.82;;;15.90;91.90;;;18.57;50.23;98621.38;5022445;28;20051;-50